sensor_id;sensor_type;location;lat;lon;timestamp;pressure;altitude;pressure_sealevel;temperature;humidity
21102;BME280;10709;49.006;12.100;2023-06-10T08:01:07;48769.53;;;-146.00;58.77
21102;BME280;10709;49.006;12.100;2023-06-10T08:03:35;48759.75;;;-146.00;58.92
21102;BME280;10709;49.006;12.100;2023-06-10T08:06:02;48755.84;;;-146.00;59.50
21102;BME280;10709;49.006;12.100;2023-06-10T08:08:28;48746.03;;;-146.00;58.87
21102;BME280;10709;49.006;12.100;2023-06-10T08:10:55;48746.03;;;-146.00;59.28
21102;BME280;10709;49.006;12.100;2023-06-10T08:13:21;48726.44;;;-146.00;59.04
21102;BME280;10709;49.006;12.100;2023-06-10T08:15:48;48742.13;;;-146.00;59.11
21102;BME280;10709;49.006;12.100;2023-06-10T08:18:16;48742.13;;;-146.00;58.86
21102;BME280;10709;49.006;12.100;2023-06-10T08:20:43;48746.03;;;-146.00;58.63
21102;BME280;10709;49.006;12.100;2023-06-10T08:23:10;48771.50;;;-146.00;58.56
21102;BME280;10709;49.006;12.100;2023-06-10T08:25:36;48777.38;;;-146.00;59.21
21102;BME280;10709;49.006;12.100;2023-06-10T08:28:02;48742.13;;;-146.00;58.26
21102;BME280;10709;49.006;12.100;2023-06-10T08:30:29;48753.88;;;-146.00;58.28
21102;BME280;10709;49.006;12.100;2023-06-10T08:32:56;48761.72;;;-146.00;58.55
21102;BME280;10709;49.006;12.100;2023-06-10T08:35:23;48732.31;;;-146.00;58.25
21102;BME280;10709;49.006;12.100;2023-06-10T08:37:50;48753.88;;;-146.00;57.05
21102;BME280;10709;49.006;12.100;2023-06-10T08:40:16;48777.38;;;-146.00;56.70
21102;BME280;10709;49.006;12.100;2023-06-10T08:42:45;48796.97;;;-146.00;57.32
21102;BME280;10709;49.006;12.100;2023-06-10T08:45:17;48785.22;;;-146.00;57.56
21102;BME280;10709;49.006;12.100;2023-06-10T08:47:49;48785.22;;;-146.00;58.20
21102;BME280;10709;49.006;12.100;2023-06-10T08:50:18;48789.13;;;-146.00;57.97
21102;BME280;10709;49.006;12.100;2023-06-10T08:52:48;48775.41;;;-146.00;58.04
21102;BME280;10709;49.006;12.100;2023-06-10T08:55:18;48757.78;;;-146.00;58.15
21102;BME280;10709;49.006;12.100;2023-06-10T08:57:49;48793.06;;;-146.00;58.50
21102;BME280;10709;49.006;12.100;2023-06-10T09:00:16;48765.63;;;-146.00;59.25
21102;BME280;10709;49.006;12.100;2023-06-10T09:02:43;48730.38;;;-146.00;58.23
21102;BME280;10709;49.006;12.100;2023-06-10T09:05:10;48787.19;;;-146.00;58.82
21102;BME280;10709;49.006;12.100;2023-06-10T09:07:38;48746.03;;;-146.00;59.05
21102;BME280;10709;49.006;12.100;2023-06-10T09:10:05;48781.31;;;-146.00;58.31
21102;BME280;10709;49.006;12.100;2023-06-10T09:12:34;48806.75;;;-146.00;57.84
21102;BME280;10709;49.006;12.100;2023-06-10T09:15:01;48808.72;;;-146.00;57.44
21102;BME280;10709;49.006;12.100;2023-06-10T09:17:29;48796.97;;;-146.00;56.99
21102;BME280;10709;49.006;12.100;2023-06-10T09:19:56;48800.88;;;-146.00;56.32
21102;BME280;10709;49.006;12.100;2023-06-10T09:22:23;48800.88;;;-146.00;55.10
21102;BME280;10709;49.006;12.100;2023-06-10T09:24:50;48769.53;;;-146.00;56.02
21102;BME280;10709;49.006;12.100;2023-06-10T09:27:16;48757.78;;;-146.00;55.84
21102;BME280;10709;49.006;12.100;2023-06-10T09:29:54;48798.94;;;-146.00;56.28
21102;BME280;10709;49.006;12.100;2023-06-10T09:32:21;48789.13;;;-146.00;55.37
21102;BME280;10709;49.006;12.100;2023-06-10T09:34:48;48765.63;;;-146.00;55.06
21102;BME280;10709;49.006;12.100;2023-06-10T09:37:24;48789.13;;;-146.00;54.46
21102;BME280;10709;49.006;12.100;2023-06-10T09:40:02;48773.47;;;-146.00;54.47
21102;BME280;10709;49.006;12.100;2023-06-10T09:42:32;48796.97;;;-146.00;54.19
21102;BME280;10709;49.006;12.100;2023-06-10T09:44:59;48796.97;;;-146.00;54.47
21102;BME280;10709;49.006;12.100;2023-06-10T09:47:26;48777.38;;;-146.00;55.27
21102;BME280;10709;49.006;12.100;2023-06-10T09:49:53;48789.13;;;-146.00;55.32
21102;BME280;10709;49.006;12.100;2023-06-10T09:52:28;48785.22;;;-146.00;54.79
21102;BME280;10709;49.006;12.100;2023-06-10T09:55:02;48789.13;;;-146.00;54.46
21102;BME280;10709;49.006;12.100;2023-06-10T09:57:32;48791.09;;;-146.00;55.60
